Time;durP1;ratioP1;P1;durP2;ratioP2;P2;SDS_P1;SDS_P2;PMS_P1;PMS_P2;Temp;Humidity;BMP_temperature;BMP_pressure;BME280_temperature;BME280_humidity;BME280_pressure;Samples;Min_cycle;Max_cycle;Signal;HPM_P1;HPM_P2
2022/04/25 00:00:01;;;;;;;26.30;10.07;;;8.20;99.90;;;;;;5052607;28;20147;-73
2022/04/25 00:02:27;;;;;;;25.23;8.93;;;8.20;99.90;;;;;;5018343;28;20136;-74
2022/04/25 00:04:53;;;;;;;24.50;10.57;;;8.20;99.90;;;;;;5034410;28;20497;-76
2022/04/25 00:07:19;;;;;;;25.58;10.27;;;8.20;99.90;;;;;;5034758;28;20056;-76
2022/04/25 00:09:45;;;;;;;23.50;9.80;;;8.20;99.90;;;;;;5034927;28;20106;-73
2022/04/25 00:12:11;;;;;;;21.95;8.82;;;8.20;99.90;;;;;;5018057;28;20045;-75
2022/04/25 00:14:37;;;;;;;27.75;12.85;;;8.20;99.90;;;;;;5035650;28;20367;-74
2022/04/25 00:17:03;;;;;;;25.10;9.73;;;8.20;99.90;;;;;;5038198;28;20068;-73
2022/04/25 00:19:28;;;;;;;25.48;9.18;;;8.10;99.90;;;;;;5055790;28;20195;-74
2022/04/25 00:21:54;;;;;;;22.42;9.18;;;8.20;99.90;;;;;;5056359;28;20041;-74
2022/04/25 00:24:20;;;;;;;25.20;10.18;;;8.20;99.90;;;;;;5055847;28;20175;-76
2022/04/25 00:26:46;;;;;;;22.27;9.30;;;8.20;99.90;;;;;;5055911;28;20239;-75
2022/04/25 00:29:12;;;;;;;23.08;9.98;;;8.20;99.90;;;;;;5038133;28;20053;-74
2022/04/25 00:31:41;;;;;;;23.77;10.60;;;8.20;99.90;;;;;;5038310;28;20183;-75
2022/04/25 00:34:07;;;;;;;27.85;12.15;;;8.30;99.90;;;;;;5034316;28;20047;-75
2022/04/25 00:36:33;;;;;;;26.13;10.38;;;8.20;99.90;;;;;;5055208;28;20063;-74
2022/04/25 00:38:59;;;;;;;23.88;10.48;;;8.20;99.90;;;;;;5055213;28;20045;-75
2022/04/25 00:41:24;;;;;;;26.33;10.32;;;8.20;99.90;;;;;;5037106;28;20063;-75
2022/04/25 00:43:57;;;;;;;25.48;11.50;;;8.20;99.90;;;;;;5020745;28;20149;-75
2022/04/25 00:46:25;;;;;;;25.45;11.95;;;8.10;99.90;;;;;;5055004;28;20084;-75
2022/04/25 00:48:51;;;;;;;23.98;10.80;;;8.10;99.90;;;;;;5037310;28;20499;-74
2022/04/25 00:51:18;;;;;;;31.42;12.25;;;8.10;99.90;;;;;;5055185;28;20123;-74
2022/04/25 00:53:45;;;;;;;25.90;11.00;;;8.10;99.90;;;;;;5038035;28;20041;-76
2022/04/25 00:56:14;;;;;;;29.98;11.35;;;8.10;99.90;;;;;;5020704;28;20128;-75
2022/04/25 00:58:46;;;;;;;28.10;11.75;;;8.10;99.90;;;;;;5055287;28;20049;-76
2022/04/25 01:01:14;;;;;;;28.42;11.45;;;8.10;99.90;;;;;;5037284;28;20053;-74
2022/04/25 01:03:40;;;;;;;32.22;14.77;;;8.10;99.90;;;;;;5036941;28;20049;-75
2022/04/25 01:06:06;;;;;;;26.95;12.27;;;8.00;99.90;;;;;;5054874;28;20041;-76
2022/04/25 01:08:34;;;;;;;26.73;12.05;;;8.00;99.90;;;;;;5036636;28;20138;-74
2022/04/25 01:11:02;;;;;;;28.23;11.50;;;8.00;99.90;;;;;;5037264;28;20175;-75
2022/04/25 01:13:29;;;;;;;27.48;11.88;;;8.00;99.90;;;;;;5054909;28;20045;-73
2022/04/25 01:15:55;;;;;;;26.67;11.63;;;8.00;99.90;;;;;;5036174;28;20068;-76
2022/04/25 01:18:21;;;;;;;35.90;16.15;;;8.00;99.90;;;;;;5036818;28;20128;-75
2022/04/25 01:20:47;;;;;;;28.75;12.38;;;8.00;99.90;;;;;;5019740;28;20117;-76
2022/04/25 01:28:52;;;;;;;29.63;12.57;;;7.80;99.90;;;;;;5054348;28;20049;-75
2022/04/25 01:31:18;;;;;;;32.75;13.40;;;7.80;99.90;;;;;;5054019;28;20071;-75
2022/04/25 01:33:44;;;;;;;29.65;12.98;;;7.80;99.90;;;;;;5052408;28;20033;-76
2022/04/25 01:36:11;;;;;;;43.40;14.40;;;7.70;99.90;;;;;;5036351;28;20049;-75
2022/04/25 01:38:36;;;;;;;31.67;14.57;;;7.70;99.90;;;;;;5037554;28;20290;-76
2022/04/25 01:41:02;;;;;;;37.55;17.88;;;7.60;99.90;;;;;;5019666;28;20057;-76
2022/04/25 01:43:28;;;;;;;35.25;13.77;;;7.60;99.90;;;;;;5036104;28;20556;-76
2022/04/25 01:45:54;;;;;;;32.35;13.75;;;7.60;99.90;;;;;;5053858;28;20045;-75
2022/04/25 01:48:21;;;;;;;40.10;16.55;;;7.60;99.90;;;;;;5054241;28;20128;-75
2022/04/25 01:50:49;;;;;;;41.92;15.20;;;7.60;99.90;;;;;;5035724;28;20060;-76
2022/04/25 01:53:15;;;;;;;35.92;13.73;;;7.60;99.90;;;;;;5054357;28;20044;-75
2022/04/25 01:55:42;;;;;;;38.92;15.90;;;7.60;99.90;;;;;;5054294;28;20150;-75
2022/04/25 01:58:09;;;;;;;37.67;15.82;;;7.60;99.90;;;;;;5053733;28;20529;-74
2022/04/25 02:00:34;;;;;;;35.70;15.55;;;7.70;99.90;;;;;;5036222;28;20489;-76
2022/04/25 02:03:00;;;;;;;36.13;15.10;;;7.70;99.90;;;;;;5003049;28;20041;-76
2022/04/25 02:05:26;;;;;;;35.17;15.10;;;7.70;99.90;;;;;;5019138;28;20041;-74
2022/04/25 02:07:52;;;;;;;39.97;16.70;;;7.70;99.90;;;;;;5003272;28;20052;-75
2022/04/25 02:10:17;;;;;;;41.00;14.65;;;7.70;99.90;;;;;;5019197;28;20053;-75
2022/04/25 02:12:44;;;;;;;41.42;16.15;;;7.70;99.90;;;;;;5035396;28;20037;-74
2022/04/25 02:15:13;;;;;;;40.90;16.23;;;7.70;99.90;;;;;;5035933;28;20064;-73
2022/04/25 02:17:39;;;;;;;42.58;16.05;;;7.80;99.90;;;;;;5036657;28;20041;-79
2022/04/25 02:20:06;;;;;;;36.80;15.40;;;7.70;99.90;;;;;;5002843;28;20373;-75
2022/04/25 02:22:35;;;;;;;37.23;15.13;;;7.80;99.90;;;;;;5036343;28;20041;-75
2022/04/25 02:25:01;;;;;;;39.22;14.48;;;7.70;99.90;;;;;;5019663;28;20435;-75
2022/04/25 02:27:27;;;;;;;37.08;14.43;;;7.80;99.90;;;;;;5053779;28;20103;-76
2022/04/25 02:29:57;;;;;;;35.63;15.00;;;7.80;99.90;;;;;;5019453;28;20041;-76
2022/04/25 02:32:27;;;;;;;40.60;15.98;;;7.80;99.90;;;;;;5007262;28;20136;-75
2022/04/25 02:34:54;;;;;;;38.83;15.82;;;7.70;99.90;;;;;;5039464;28;20049;-76
2022/04/25 02:37:21;;;;;;;40.92;17.00;;;7.70;99.90;;;;;;5040331;28;20072;-76
2022/04/25 02:39:47;;;;;;;42.40;17.45;;;7.80;99.90;;;;;;5038309;28;20041;-76
2022/04/25 02:42:12;;;;;;;39.45;15.50;;;7.80;99.90;;;;;;5036255;28;20053;-76
2022/04/25 02:44:38;;;;;;;44.65;16.70;;;7.80;99.90;;;;;;5053500;28;20049;-76
2022/04/25 02:47:04;;;;;;;44.30;17.67;;;7.80;99.90;;;;;;5035929;28;20045;-75
2022/04/25 02:49:30;;;;;;;35.92;16.13;;;7.80;99.90;;;;;;5035246;28;20481;-75
2022/04/25 02:51:56;;;;;;;40.90;16.98;;;7.80;99.90;;;;;;5034974;28;20045;-76
2022/04/25 02:54:23;;;;;;;47.95;19.17;;;7.70;99.90;;;;;;5035124;28;20064;-76
2022/04/25 02:56:49;;;;;;;40.45;15.85;;;7.70;99.90;;;;;;5035290;28;20141;-76
2022/04/25 02:59:15;;;;;;;37.95;15.77;;;7.70;99.90;;;;;;5034806;28;20535;-74
2022/04/25 03:01:41;;;;;;;42.77;19.13;;;7.70;99.90;;;;;;5052867;28;20115;-76
2022/04/25 03:04:08;;;;;;;41.03;19.05;;;7.70;99.90;;;;;;5034747;28;20279;-76
2022/04/25 03:06:34;;;;;;;38.40;15.97;;;7.60;99.90;;;;;;5018180;28;20095;-73
2022/04/25 03:08:59;;;;;;;39.60;15.93;;;7.60;99.90;;;;;;5018235;28;20279;-73
2022/04/25 03:11:25;;;;;;;42.97;18.40;;;7.60;99.90;;;;;;5022687;28;20131;-75
2022/04/25 03:13:52;;;;;;;42.88;17.85;;;7.60;99.90;;;;;;5018195;28;20060;-76
2022/04/25 03:16:19;;;;;;;42.40;15.55;;;7.40;99.90;;;;;;5018560;28;20041;-76
2022/04/25 03:18:45;;;;;;;42.80;18.63;;;7.50;99.90;;;;;;5018905;28;20408;-74
2022/04/25 03:21:11;;;;;;;42.10;17.27;;;7.50;99.90;;;;;;5052424;28;20065;-75
2022/04/25 03:23:37;;;;;;;44.30;16.70;;;7.50;99.90;;;;;;5018698;28;20150;-75
2022/04/25 03:26:04;;;;;;;44.17;15.77;;;7.40;99.90;;;;;;5034883;28;20409;-76
2022/04/25 03:28:30;;;;;;;39.13;15.05;;;7.50;99.90;;;;;;5018171;28;20045;-75
2022/04/25 03:30:55;;;;;;;37.17;15.77;;;7.50;99.90;;;;;;5034541;28;20045;-75
2022/04/25 03:33:21;;;;;;;39.05;16.15;;;7.50;99.90;;;;;;5052787;28;20096;-76
2022/04/25 03:35:48;;;;;;;41.53;17.20;;;7.40;99.90;;;;;;5034396;28;20167;-78
2022/04/25 03:38:18;;;;;;;43.55;16.25;;;7.40;99.90;;;;;;5034581;28;20088;-75
2022/04/25 03:40:45;;;;;;;39.70;15.32;;;7.40;99.90;;;;;;5052015;28;20136;-75
2022/04/25 03:43:15;;;;;;;46.78;15.77;;;7.30;99.90;;;;;;5051181;28;20442;-76
2022/04/25 03:45:41;;;;;;;48.35;14.57;;;7.30;99.90;;;;;;5052334;28;20084;-75
2022/04/25 03:48:08;;;;;;;46.58;16.00;;;7.30;99.90;;;;;;5034446;28;20045;-75
2022/04/25 03:50:34;;;;;;;36.50;14.55;;;7.30;99.90;;;;;;5054596;28;20057;-73
2022/04/25 03:53:11;;;;;;;39.80;15.23;;;7.30;99.90;;;;;;5021546;28;20121;-76
2022/04/25 03:58:21;;;;;;;40.47;14.77;;;7.20;99.90;;;;;;5041554;28;20125;-75
2022/04/25 04:00:48;;;;;;;41.85;14.75;;;7.20;99.90;;;;;;5056588;28;20048;-76
2022/04/25 04:03:18;;;;;;;35.60;13.90;;;7.20;99.90;;;;;;5038342;28;20484;-75
2022/04/25 04:05:45;;;;;;;34.60;14.57;;;7.30;99.90;;;;;;5038280;28;20051;-75
2022/04/25 04:08:10;;;;;;;42.83;15.90;;;7.30;99.90;;;;;;5038002;28;20057;-75
2022/04/25 04:10:36;;;;;;;42.83;16.42;;;7.30;99.90;;;;;;5038520;28;20041;-76
2022/04/25 04:13:02;;;;;;;34.65;14.25;;;7.20;99.90;;;;;;5038704;28;20053;-75
2022/04/25 04:15:28;;;;;;;41.33;15.02;;;7.20;99.90;;;;;;5038852;28;20392;-74
2022/04/25 04:17:54;;;;;;;44.08;17.85;;;7.20;99.90;;;;;;5038625;28;20037;-73
2022/04/25 04:20:20;;;;;;;33.75;14.95;;;7.20;99.90;;;;;;5055908;28;20048;-74
2022/04/25 04:22:46;;;;;;;42.63;18.35;;;7.20;99.90;;;;;;5037534;28;20069;-74
2022/04/25 04:25:13;;;;;;;35.30;13.68;;;7.20;99.90;;;;;;5037948;28;20130;-74
2022/04/25 04:27:41;;;;;;;47.28;18.25;;;7.20;99.90;;;;;;5055437;28;20115;-72
2022/04/25 04:30:12;;;;;;;38.92;14.63;;;7.20;99.90;;;;;;5021460;28;20066;-73
2022/04/25 04:32:40;;;;;;;35.28;13.82;;;7.20;99.90;;;;;;5055596;28;20045;-76
2022/04/25 04:35:09;;;;;;;40.97;14.65;;;7.30;99.90;;;;;;5037833;28;20080;-75
2022/04/25 04:37:35;;;;;;;36.65;13.45;;;7.30;99.90;;;;;;5037411;28;20124;-74
2022/04/25 04:42:46;;;;;;;33.13;13.70;;;7.40;99.90;;;;;;5037704;28;20049;-76
2022/04/25 04:45:12;;;;;;;44.58;14.57;;;7.30;99.90;;;;;;5038368;28;20040;-76
2022/04/25 04:47:39;;;;;;;34.35;15.20;;;7.40;99.90;;;;;;5055305;28;20092;-74
2022/04/25 04:50:08;;;;;;;32.47;13.85;;;7.30;99.90;;;;;;5055564;28;20099;-75
2022/04/25 04:52:34;;;;;;;32.50;13.93;;;7.30;99.90;;;;;;5055041;28;20084;-75
2022/04/25 04:55:01;;;;;;;39.15;15.40;;;7.30;99.90;;;;;;5021485;28;20052;-74
2022/04/25 04:57:27;;;;;;;36.80;15.18;;;7.30;99.90;;;;;;5055138;28;20063;-76
2022/04/25 04:59:52;;;;;;;33.65;14.40;;;7.30;99.90;;;;;;5021675;28;20045;-74
2022/04/25 05:02:18;;;;;;;38.92;14.32;;;7.30;99.90;;;;;;5020569;28;20041;-75
2022/04/25 05:04:44;;;;;;;34.20;13.65;;;7.30;99.90;;;;;;5038672;28;20186;-75
2022/04/25 05:07:10;;;;;;;33.75;12.73;;;7.30;99.90;;;;;;5037529;28;20041;-76
2022/04/25 05:09:36;;;;;;;36.78;15.23;;;7.40;99.90;;;;;;5036911;28;20499;-75
2022/04/25 05:12:02;;;;;;;34.40;13.45;;;7.30;99.90;;;;;;5054674;28;20133;-73
2022/04/25 05:14:28;;;;;;;31.85;12.35;;;7.30;99.90;;;;;;5054593;28;20076;-75
2022/04/25 05:16:53;;;;;;;36.20;13.00;;;7.40;99.90;;;;;;5036705;28;20079;-75
2022/04/25 05:19:20;;;;;;;30.38;11.70;;;7.40;99.90;;;;;;5037247;28;20068;-77
2022/04/25 05:21:47;;;;;;;35.67;13.20;;;7.40;99.90;;;;;;5020652;28;20333;-74
2022/04/25 05:24:14;;;;;;;35.03;12.90;;;7.40;99.90;;;;;;5036599;28;20053;-74
2022/04/25 05:26:40;;;;;;;;;;;7.50;99.90;;;;;;5054926;28;20339;-76
2022/04/25 05:29:07;;;;;;;29.63;12.00;;;7.60;99.90;;;;;;5037160;28;20013;-75
2022/04/25 05:31:33;;;;;;;31.88;12.70;;;7.60;99.90;;;;;;5054076;28;20080;-74
2022/04/25 05:34:00;;;;;;;31.85;12.20;;;7.60;99.90;;;;;;5054670;28;20056;-75
2022/04/25 05:36:26;;;;;;;34.30;13.27;;;7.60;99.90;;;;;;5054712;28;20088;-75
2022/04/25 05:38:52;;;;;;;28.50;11.88;;;7.70;99.90;;;;;;5036504;28;20080;-75
2022/04/25 05:41:18;;;;;;;39.25;14.52;;;7.80;99.90;;;;;;5054132;28;20553;-73
2022/04/25 05:43:45;;;;;;;32.45;14.15;;;7.60;99.90;;;;;;5052987;28;20049;-76
2022/04/25 05:46:10;;;;;;;30.02;12.50;;;7.60;99.90;;;;;;5036416;28;20071;-73
2022/04/25 05:54:05;;;;;;;34.22;13.35;;;7.70;99.90;;;;;;5053923;28;20053;-72
2022/04/25 05:56:31;;;;;;;31.85;12.13;;;7.60;99.90;;;;;;5003798;28;20059;-73
2022/04/25 05:58:57;;;;;;;26.70;10.85;;;7.70;99.90;;;;;;5035757;28;20048;-72
2022/04/25 06:01:23;;;;;;;29.80;12.00;;;7.70;99.90;;;;;;5022170;28;20052;-74
2022/04/25 06:03:48;;;;;;;28.65;10.60;;;7.70;99.90;;;;;;5020166;28;20461;-74
2022/04/25 06:06:14;;;;;;;30.92;12.23;;;7.70;99.90;;;;;;5035669;28;20055;-73
2022/04/25 06:08:40;;;;;;;30.05;11.75;;;7.80;99.90;;;;;;5053721;28;20056;-74
2022/04/25 06:11:06;;;;;;;34.05;14.73;;;7.80;99.90;;;;;;5053499;28;20049;-75
2022/04/25 06:13:31;;;;;;;27.95;12.07;;;7.80;99.90;;;;;;5035619;28;20045;-73
2022/04/25 06:15:57;;;;;;;34.53;12.57;;;7.80;99.90;;;;;;5035561;28;20053;-75
2022/04/25 06:18:23;;;;;;;29.40;11.05;;;7.80;99.90;;;;;;5035665;28;20056;-73
2022/04/25 06:20:50;;;;;;;27.13;10.77;;;7.90;99.90;;;;;;5019215;28;20049;-75
2022/04/25 06:23:17;;;;;;;31.88;11.55;;;7.90;99.90;;;;;;5035658;28;20037;-75
2022/04/25 06:25:43;;;;;;;31.80;12.25;;;8.00;99.90;;;;;;5035556;28;20063;-73
2022/04/25 06:28:09;;;;;;;30.00;11.40;;;8.10;99.90;;;;;;5053834;28;20671;-76
2022/04/25 06:30:35;;;;;;;33.83;14.55;;;8.10;99.90;;;;;;5019168;28;20041;-75
2022/04/25 06:33:01;;;;;;;32.10;11.55;;;8.00;99.90;;;;;;5035745;28;20045;-75
2022/04/25 06:35:30;;;;;;;26.25;11.10;;;8.10;99.90;;;;;;5035894;28;20060;-73
2022/04/25 06:37:56;;;;;;;29.83;11.88;;;8.20;99.90;;;;;;5035553;28;20072;-75
2022/04/25 06:40:22;;;;;;;34.60;12.13;;;8.30;99.90;;;;;;5035131;28;20067;-74
2022/04/25 06:42:48;;;;;;;29.27;12.55;;;8.20;99.90;;;;;;5035307;28;20131;-75
2022/04/25 06:45:15;;;;;;;37.60;14.52;;;8.30;99.90;;;;;;5053171;28;20048;-74
2022/04/25 06:47:42;;;;;;;28.30;11.07;;;8.20;99.90;;;;;;5055934;28;20053;-75
2022/04/25 06:50:08;;;;;;;29.20;11.90;;;8.30;99.90;;;;;;5056783;28;20550;-74
2022/04/25 06:52:34;;;;;;;28.58;13.13;;;8.30;99.90;;;;;;5021495;28;20393;-75
2022/04/25 06:55:00;;;;;;;33.75;14.25;;;8.40;99.90;;;;;;5055821;28;20037;-75
2022/04/25 06:57:26;;;;;;;32.85;12.02;;;8.30;99.90;;;;;;5035540;28;20128;-74
2022/04/25 06:59:52;;;;;;;31.48;12.23;;;8.30;99.90;;;;;;5034437;28;20250;-74
2022/04/25 07:02:18;;;;;;;38.17;13.40;;;8.40;99.90;;;;;;5018265;28;20049;-74
2022/04/25 07:04:45;;;;;;;33.30;13.77;;;8.50;99.90;;;;;;5052707;28;20130;-76
2022/04/25 07:07:11;;;;;;;35.78;12.52;;;8.50;99.90;;;;;;5052335;28;20053;-73
2022/04/25 07:09:37;;;;;;;39.00;12.88;;;8.50;99.90;;;;;;5052258;28;20072;-73
2022/04/25 07:12:03;;;;;;;37.92;13.55;;;8.60;99.90;;;;;;5034412;28;20125;-75
2022/04/25 07:14:29;;;;;;;46.15;17.35;;;8.60;99.90;;;;;;5052423;28;20124;-75
2022/04/25 07:16:59;;;;;;;44.08;15.18;;;8.30;99.90;;;;;;5034761;28;20045;-77
2022/04/25 07:19:27;;;;;;;36.05;14.52;;;8.40;99.90;;;;;;5034984;28;20378;-75
2022/04/25 07:30:09;;;;;;;38.90;13.70;;;8.50;99.90;;;;;;5053078;28;20049;-76
2022/04/25 07:32:39;;;;;;;37.83;13.43;;;8.60;99.90;;;;;;5035509;28;20358;-76
2022/04/25 07:35:07;;;;;;;42.88;14.50;;;8.60;99.90;;;;;;5018759;28;20052;-74
2022/04/25 07:37:34;;;;;;;36.13;13.23;;;8.60;99.90;;;;;;5018058;28;20373;-73
2022/04/25 07:40:02;;;;;;;39.13;14.05;;;8.70;99.90;;;;;;5052878;28;20063;-75
2022/04/25 07:42:29;;;;;;;37.40;13.23;;;8.70;99.90;;;;;;5035050;28;20480;-76
2022/04/25 07:44:55;;;;;;;35.28;14.18;;;8.70;99.90;;;;;;5002005;28;20117;-74
2022/04/25 07:47:22;;;;;;;34.92;13.25;;;8.70;99.90;;;;;;5052476;28;20130;-74
2022/04/25 07:49:48;;;;;;;34.30;12.73;;;8.70;99.90;;;;;;5034270;28;20135;-75
2022/04/25 07:52:14;;;;;;;32.65;13.32;;;8.70;99.90;;;;;;5051725;28;20183;-74
2022/04/25 07:54:40;;;;;;;36.00;13.20;;;8.60;99.90;;;;;;5034500;28;20126;-75
2022/04/25 07:57:06;;;;;;;34.28;13.82;;;8.70;99.90;;;;;;5033958;28;20095;-75
2022/04/25 07:59:33;;;;;;;33.28;14.00;;;8.50;99.90;;;;;;5034481;28;20061;-76
2022/04/25 08:01:59;;;;;;;;;;;8.50;99.90;;;;;;5035564;28;20049;-76
2022/04/25 08:04:25;;;;;;;35.67;12.60;;;8.40;99.90;;;;;;5053021;28;20007;-73
2022/04/25 08:06:51;;;;;;;40.58;14.65;;;8.50;99.90;;;;;;5052254;28;20750;-74
2022/04/25 08:09:17;;;;;;;38.40;15.25;;;8.30;99.90;;;;;;5033949;28;20517;-74
2022/04/25 08:11:42;;;;;;;43.20;16.95;;;7.90;99.90;;;;;;5052067;28;20098;-75
2022/04/25 08:19:37;;;;;;;41.47;15.88;;;7.70;99.90;;;;;;5051855;28;20049;-76
2022/04/25 08:22:07;;;;;;;38.45;14.98;;;7.70;99.90;;;;;;5052190;28;20159;-77
2022/04/25 08:24:33;;;;;;;39.78;15.00;;;7.80;99.90;;;;;;5035157;28;20334;-76
2022/04/25 08:26:59;;;;;;;38.78;13.57;;;7.90;99.90;;;;;;5034793;28;20128;-74
2022/04/25 08:29:25;;;;;;;35.55;14.77;;;7.80;99.90;;;;;;5034880;28;20099;-74
2022/04/25 08:31:51;;;;;;;39.42;14.25;;;7.90;99.90;;;;;;5017933;28;20144;-77
2022/04/25 08:34:17;;;;;;;37.30;13.27;;;8.00;99.90;;;;;;5036648;28;20068;-77
2022/04/25 08:36:45;;;;;;;35.28;14.43;;;8.00;99.90;;;;;;5020331;28;20484;-76
2022/04/25 08:39:10;;;;;;;39.40;14.25;;;8.00;99.90;;;;;;5007665;28;20048;-75
2022/04/25 08:41:39;;;;;;;36.67;13.70;;;8.10;99.90;;;;;;5004627;28;20059;-77
2022/04/25 08:44:06;;;;;;;40.85;14.20;;;8.20;99.90;;;;;;5038021;28;20103;-77
2022/04/25 08:46:34;;;;;;;37.15;14.23;;;8.10;99.90;;;;;;5021485;28;20443;-75
2022/04/25 08:49:04;;;;;;;40.10;13.95;;;8.20;99.90;;;;;;5058014;28;20138;-75
2022/04/25 08:51:34;;;;;;;34.40;13.75;;;8.30;99.90;;;;;;5038273;28;20053;-77
2022/04/25 08:54:02;;;;;;;35.83;14.30;;;8.30;99.90;;;;;;5057622;28;20049;-76
2022/04/25 08:56:28;;;;;;;38.88;14.68;;;8.30;99.90;;;;;;5058239;28;20447;-75
2022/04/25 08:58:56;;;;;;;37.53;14.45;;;8.30;99.90;;;;;;5039385;28;20148;-76
2022/04/25 09:01:22;;;;;;;37.72;16.35;;;8.30;99.90;;;;;;5059465;28;20049;-78
2022/04/25 09:03:48;;;;;;;36.60;14.73;;;8.30;99.90;;;;;;5008320;28;20072;-74
2022/04/25 09:06:15;;;;;;;43.58;14.95;;;8.30;99.90;;;;;;5040871;28;20484;-71
2022/04/25 09:08:42;;;;;;;36.25;14.38;;;8.40;99.90;;;;;;5039523;28;20044;-76
2022/04/25 09:13:52;;;;;;;34.72;14.82;;;8.30;99.90;;;;;;5057100;28;20053;-74
2022/04/25 09:16:18;;;;;;;45.83;23.20;;;8.40;99.90;;;;;;5037264;28;20049;-74
2022/04/25 09:18:45;;;;;;;42.30;16.17;;;8.20;99.90;;;;;;5040548;28;20055;-76
2022/04/25 09:21:14;;;;;;;38.25;15.05;;;8.30;99.90;;;;;;5057306;28;20076;-74
2022/04/25 09:23:41;;;;;;;41.03;15.93;;;8.50;99.90;;;;;;5044566;28;20045;-75
2022/04/25 09:26:14;;;;;;;44.83;15.97;;;8.40;99.90;;;;;;5030856;28;20048;-77
2022/04/25 09:28:51;;;;;;;38.90;14.38;;;8.30;99.90;;;;;;5057942;28;20052;-77
2022/04/25 09:31:18;;;;;;;40.83;14.98;;;8.30;99.90;;;;;;5050760;28;20063;-79
2022/04/25 09:33:45;;;;;;;37.78;15.13;;;8.50;99.90;;;;;;5056778;28;20455;-76
2022/04/25 09:36:11;;;;;;;41.93;14.73;;;8.50;99.90;;;;;;5038881;28;20040;-77
2022/04/25 09:38:40;;;;;;;38.05;16.20;;;8.50;99.90;;;;;;5054100;28;20049;-75
2022/04/25 09:41:11;;;;;;;39.53;14.93;;;8.60;99.90;;;;;;5054128;28;20060;-76
2022/04/25 09:43:38;;;;;;;43.30;15.57;;;8.70;99.90;;;;;;5036799;28;20213;-78
2022/04/25 09:46:11;;;;;;;39.03;15.02;;;8.80;99.90;;;;;;5064226;28;20049;-75
2022/04/25 09:48:41;;;;;;;43.80;15.35;;;8.90;99.90;;;;;;5039750;28;20114;-77
2022/04/25 09:51:16;;;;;;;36.17;14.60;;;8.90;99.90;;;;;;5023888;28;20053;-75
2022/04/25 09:53:52;;;;;;;37.72;14.85;;;8.90;99.90;;;;;;5037139;28;20045;-75
2022/04/25 09:56:23;;;;;;;39.92;19.15;;;8.90;99.90;;;;;;5037912;28;20194;-77
2022/04/25 09:59:09;;;;;;;35.38;14.15;;;8.80;99.90;;;;;;5055723;28;20052;-74
2022/04/25 10:01:37;;;;;;;35.88;13.75;;;9.20;99.90;;;;;;5055314;28;20048;-75
2022/04/25 10:04:34;;;;;;;33.60;14.02;;;9.50;99.90;;;;;;5037173;28;20052;-75
2022/04/25 10:07:03;;;;;;;32.88;13.80;;;9.80;99.90;;;;;;5054165;28;20085;-75
2022/04/25 10:09:31;;;;;;;32.50;13.18;;;9.90;99.90;;;;;;5037081;28;20190;-74
2022/04/25 10:12:03;;;;;;;31.42;13.32;;;9.90;99.90;;;;;;5054144;28;20049;-74
2022/04/25 10:14:29;;;;;;;29.23;12.88;;;9.90;99.90;;;;;;5036051;28;20057;-74
2022/04/25 10:16:56;;;;;;;30.52;12.68;;;10.00;99.90;;;;;;5020050;28;20048;-74
2022/04/25 10:19:24;;;;;;;34.92;13.35;;;10.00;99.90;;;;;;5053914;28;20055;-78
2022/04/25 10:21:52;;;;;;;27.52;11.82;;;10.00;99.90;;;;;;5053205;28;20102;-75
2022/04/25 10:24:18;;;;;;;26.73;11.70;;;10.10;99.90;;;;;;5053655;28;20045;-75
2022/04/25 10:26:46;;;;;;;26.25;11.50;;;9.80;99.90;;;;;;5019493;28;20056;-74
2022/04/25 10:29:17;;;;;;;27.15;11.27;;;9.90;99.90;;;;;;5035710;28;20436;-73
2022/04/25 10:31:47;;;;;;;24.90;10.88;;;9.80;99.90;;;;;;5035901;28;20457;-76
2022/04/25 10:34:16;;;;;;;24.77;10.40;;;9.80;99.90;;;;;;5036208;28;20353;-73
2022/04/25 10:36:44;;;;;;;28.13;11.05;;;9.60;99.90;;;;;;5019963;28;20045;-75
2022/04/25 10:39:14;;;;;;;27.58;10.95;;;9.40;99.90;;;;;;5053345;28;20132;-74
2022/04/25 10:44:47;;;;;;;20.38;9.43;;;9.70;99.90;;;;;;5038403;28;20048;-75
2022/04/25 10:47:16;;;;;;;23.63;9.95;;;9.70;99.90;;;;;;5035972;28;20519;-74
2022/04/25 10:49:44;;;;;;;21.35;9.82;;;9.80;99.90;;;;;;5053797;28;20461;-73
2022/04/25 10:52:32;;;;;;;21.77;10.10;;;9.80;99.90;;;;;;5037704;28;20112;-73
2022/04/25 10:55:14;;;;;;;24.50;9.85;;;9.70;99.90;;;;;;5042601;28;20116;-76
2022/04/25 10:58:04;;;;;;;21.25;9.50;;;9.40;99.90;;;;;;5060725;28;20060;-74
2022/04/25 11:00:39;;;;;;;25.50;10.40;;;9.40;99.90;;;;;;5043371;28;20044;-75
2022/04/25 11:03:18;;;;;;;21.90;10.43;;;9.50;99.90;;;;;;5043490;28;20080;-81
2022/04/25 11:05:49;;;;;;;22.67;9.98;;;9.80;99.90;;;;;;5060847;28;20047;-78
2022/04/25 11:08:18;;;;;;;26.00;9.27;;;9.90;99.90;;;;;;5038935;28;20053;-76
2022/04/25 11:11:04;;;;;;;26.30;10.07;;;10.10;99.90;;;;;;5053421;28;20100;-76
2022/04/25 11:13:33;;;;;;;23.50;9.23;;;10.20;99.90;;;;;;5053590;28;20045;-74
2022/04/25 11:16:21;;;;;;;18.30;9.40;;;10.10;99.90;;;;;;5034606;28;20053;-76
2022/04/25 11:19:08;;;;;;;21.20;9.80;;;9.80;99.90;;;;;;5052992;28;20060;-77
2022/04/25 11:21:34;;;;;;;;;;;10.30;99.90;;;;;;5023314;28;20049;-80
2022/04/25 11:24:01;;;;;;;30.90;13.00;;;10.70;99.90;;;;;;5020185;28;20407;-78
2022/04/25 11:26:29;;;;;;;26.88;11.52;;;10.40;99.90;;;;;;5036132;28;20117;-76
2022/04/25 11:29:04;;;;;;;23.25;10.00;;;10.50;99.90;;;;;;5053043;28;20056;-75
2022/04/25 11:31:37;;;;;;;25.48;9.38;;;10.70;99.90;;;;;;5036654;28;20107;-80
2022/04/25 11:34:07;;;;;;;22.35;10.75;;;11.30;99.90;;;;;;5021313;28;20041;-76
2022/04/25 11:36:44;;;;;;;22.45;12.30;;;11.40;99.90;;;;;;5053300;28;20106;-78
2022/04/25 11:41:59;;;;;;;21.35;9.95;;;11.40;99.90;;;;;;5036271;28;20056;-78
2022/04/25 11:44:24;;;;;;;22.75;10.18;;;11.50;99.90;;;;;;5036849;28;20095;-77
2022/04/25 11:46:53;;;;;;;25.63;10.65;;;11.60;99.90;;;;;;5021005;28;20366;-77
2022/04/25 11:49:29;;;;;;;26.75;11.15;;;11.70;99.90;;;;;;5053390;28;20404;-75
2022/04/25 11:51:58;;;;;;;27.13;9.88;;;11.90;99.90;;;;;;5035580;28;20088;-76
2022/04/25 11:54:24;;;;;;;25.83;10.77;;;11.90;99.90;;;;;;5054749;28;20060;-77
2022/04/25 11:56:50;;;;;;;23.67;11.02;;;12.00;99.90;;;;;;5004060;28;20048;-78
2022/04/25 11:59:18;;;;;;;25.33;10.65;;;12.00;99.90;;;;;;5036470;28;20068;-78
2022/04/25 12:01:47;;;;;;;21.08;9.40;;;12.10;99.90;;;;;;5036564;28;20504;-76
2022/04/25 12:04:25;;;;;;;22.75;10.57;;;12.10;99.90;;;;;;5020202;28;20059;-77
2022/04/25 12:06:59;;;;;;;21.92;9.27;;;12.00;99.90;;;;;;5036261;28;20144;-78
2022/04/25 12:18:30;;;;;;;18.42;9.32;;;12.60;99.90;;;;;;5039420;28;20049;-74
2022/04/25 12:21:12;;;;;;;21.63;8.60;;;12.60;99.90;;;;;;5042991;28;20077;-77
2022/04/25 12:23:52;;;;;;;21.75;9.30;;;12.70;99.90;;;;;;5039213;28;20049;-79
2022/04/25 12:26:23;;;;;;;16.85;8.52;;;12.80;99.90;;;;;;5022512;28;20044;-79
2022/04/25 12:28:59;;;;;;;16.67;8.38;;;13.00;99.90;;;;;;5056561;28;20083;-75
2022/04/25 12:31:28;;;;;;;16.43;8.37;;;13.10;99.90;;;;;;5023542;28;20450;-81
2022/04/25 12:33:56;;;;;;;19.83;9.18;;;13.00;99.90;;;;;;5056821;28;20284;-75
2022/04/25 12:36:27;;;;;;;19.75;7.80;;;12.80;99.90;;;;;;5040087;28;20071;-77
2022/04/25 12:39:00;;;;;;;21.58;8.35;;;12.80;99.90;;;;;;5042002;28;20136;-75
2022/04/25 12:41:36;;;;;;;18.35;8.68;;;12.50;99.90;;;;;;5038452;28;20393;-78
2022/04/25 12:44:12;;;;;;;18.42;9.50;;;12.40;99.90;;;;;;5056254;28;20120;-79
2022/04/25 12:46:47;;;;;;;18.90;8.60;;;11.50;99.90;;;;;;5039165;28;20059;-76
2022/04/25 12:49:33;;;;;;;19.15;8.52;;;11.90;99.90;;;;;;5022775;28;20420;-80
2022/04/25 12:52:00;;;;;;;21.25;9.27;;;12.20;99.90;;;;;;5021707;28;20085;-78
2022/04/25 12:54:27;;;;;;;18.42;9.02;;;12.10;99.90;;;;;;5039702;28;20080;-77
2022/04/25 12:57:15;;;;;;;21.15;9.02;;;12.50;99.90;;;;;;5038634;28;20136;-79
2022/04/25 12:59:53;;;;;;;19.20;8.65;;;12.70;99.90;;;;;;5056866;28;20452;-76
2022/04/25 13:02:26;;;;;;;17.20;8.07;;;12.70;99.90;;;;;;5038384;28;20045;-76
2022/04/25 13:04:57;;;;;;;19.30;9.02;;;12.70;99.90;;;;;;5038561;28;20053;-76
2022/04/25 13:07:31;;;;;;;18.65;9.40;;;12.60;99.90;;;;;;5055990;28;20477;-80
2022/04/25 13:10:03;;;;;;;20.27;10.00;;;12.40;99.90;;;;;;5038410;28;20068;-80
2022/04/25 13:12:37;;;;;;;21.38;10.00;;;12.00;99.90;;;;;;5056084;28;20033;-79
2022/04/25 13:15:07;;;;;;;21.38;9.90;;;11.70;99.90;;;;;;5022174;28;20059;-75
2022/04/25 13:17:32;;;;;;;20.23;9.35;;;11.70;99.90;;;;;;5037102;28;20437;-78
2022/04/25 13:19:59;;;;;;;19.20;9.65;;;11.80;99.90;;;;;;5021184;28;20044;-77
2022/04/25 13:22:25;;;;;;;18.88;9.20;;;11.80;99.90;;;;;;5020122;28;20131;-78
2022/04/25 13:24:51;;;;;;;18.92;8.70;;;11.60;99.90;;;;;;5020895;28;20588;-80
2022/04/25 13:27:17;;;;;;;22.80;9.23;;;11.70;99.90;;;;;;5020824;28;20171;-79
2022/04/25 13:29:44;;;;;;;21.87;10.63;;;12.00;99.90;;;;;;5037905;28;20080;-80